Time;durP1;ratioP1;P1;durP2;ratioP2;P2;SDS_P1;SDS_P2;PMS_P1;PMS_P2;Temp;Humidity;BMP_temperature;BMP_pressure;BME280_temperature;BME280_humidity;BME280_pressure;Samples;Min_cycle;Max_cycle;Signal;HPM_P1;HPM_P2
2023/07/13 00:01:09;;;;;;;;;;;;;;;22.72;47.31;97812.13;5003179;28;19934;-65
2023/07/13 00:03:57;;;;;;;;;;;;;;;22.72;47.61;97808.56;4997724;28;20110;-65
2023/07/13 00:06:47;;;;;;;;;;;;;;;22.63;47.13;97799.84;5006557;28;20391;-65
2023/07/13 00:09:36;;;;;;;;;;;;;;;22.63;47.62;97797.09;5007343;28;19933;-65
2023/07/13 00:12:25;;;;;;;;;;;;;;;22.60;47.52;97778.50;5007523;28;19936;-61
2023/07/13 00:15:16;;;;;;;;;;;;;;;22.73;47.57;97768.63;5005924;28;20298;-64
2023/07/13 00:18:04;;;;;;;;;;;;;;;22.63;47.54;97767.41;5007699;28;19932;-62
2023/07/13 00:20:52;;;;;;;;;;;;;;;22.63;47.58;97767.41;5007520;28;19936;-68
2023/07/13 00:23:42;;;;;;;;;;;;;;;22.55;47.68;97765.06;5007125;28;19929;-63
2023/07/13 00:26:32;;;;;;;;;;;;;;;22.55;47.66;97759.53;5004178;28;19926;-61
2023/07/13 00:29:20;;;;;;;;;;;;;;;22.45;47.67;97764.63;5006115;28;19929;-61
2023/07/13 00:32:11;;;;;;;;;;;;;;;22.60;47.57;97767.44;5006292;28;19937;-63
2023/07/13 00:35:03;;;;;;;;;;;;;;;22.47;47.65;97773.34;5000203;28;19980;-65
2023/07/13 00:37:51;;;;;;;;;;;;;;;22.44;47.73;97785.22;5001159;28;20298;-62
2023/07/13 00:40:40;;;;;;;;;;;;;;;22.46;47.86;97785.59;5002996;28;20527;-63
2023/07/13 00:43:29;;;;;;;;;;;;;;;22.31;47.79;97785.97;5003839;28;20422;-65
2023/07/13 00:46:21;;;;;;;;;;;;;;;22.32;48.16;97788.34;4992230;28;19937;-65
2023/07/13 00:49:10;;;;;;;;;;;;;;;22.42;47.94;97801.41;4999778;28;19959;-63
2023/07/13 00:51:59;;;;;;;;;;;;;;;22.39;49.08;97796.66;5006540;28;20323;-69
2023/07/13 00:54:48;;;;;;;;;;;;;;;22.58;48.48;97806.56;5003872;28;19929;-65
2023/07/13 00:57:38;;;;;;;;;;;;;;;22.48;47.41;97812.91;5005640;28;19930;-64
2023/07/13 01:00:28;;;;;;;;;;;;;;;22.50;47.65;97816.06;5003295;28;20080;-65
2023/07/13 01:03:16;;;;;;;;;;;;;;;22.34;47.19;97804.56;5015090;28;19936;-63
2023/07/13 01:06:04;;;;;;;;;;;;;;;22.35;47.00;97806.13;5005164;28;19929;-64
2023/07/13 01:08:53;;;;;;;;;;;;;;;22.25;47.59;97793.84;4998248;28;19926;-65
2023/07/13 01:11:42;;;;;;;;;;;;;;;22.31;47.52;97792.28;4992290;28;20524;-62
2023/07/13 01:14:31;;;;;;;;;;;;;;;22.22;47.87;97791.88;5006282;28;19929;-65
2023/07/13 01:17:20;;;;;;;;;;;;;;;22.22;47.89;97795.44;5000294;28;19925;-65
2023/07/13 01:20:09;;;;;;;;;;;;;;;22.07;47.72;97779.94;4995214;28;19929;-62
2023/07/13 01:22:59;;;;;;;;;;;;;;;22.14;47.85;97787.50;4993493;28;19929;-61
2023/07/13 01:25:50;;;;;;;;;;;;;;;22.07;48.18;97788.25;5015363;28;19996;-65
2023/07/13 01:28:38;;;;;;;;;;;;;;;22.01;48.02;97791.78;4998000;28;20580;-66
2023/07/13 01:31:28;;;;;;;;;;;;;;;;;;5006890;28;20314;-62
2023/07/13 01:34:18;;;;;;;;;;;;;;;21.93;48.42;97793.72;5001818;28;19994;-67
2023/07/13 01:37:07;;;;;;;;;;;;;;;21.86;48.82;97794.50;5023694;28;19978;-63
2023/07/13 01:39:56;;;;;;;;;;;;;;;21.88;48.64;97789.34;5004243;28;19925;-65
2023/07/13 01:42:44;;;;;;;;;;;;;;;21.72;48.65;97797.19;4996838;28;19929;-65
2023/07/13 01:45:33;;;;;;;;;;;;;;;21.87;48.86;97784.22;5005285;28;19929;-65
2023/07/13 01:48:21;;;;;;;;;;;;;;;21.88;49.73;97775.53;4997305;28;19930;-64
2023/07/13 01:51:09;;;;;;;;;;;;;;;21.77;48.04;97776.66;5003185;28;20019;-62
2023/07/13 01:53:57;;;;;;;;;;;;;;;21.71;47.51;97776.25;4999307;28;19934;-65
2023/07/13 01:56:47;;;;;;;;;;;;;;;21.39;48.06;97785.16;4992312;28;20401;-70
2023/07/13 01:59:35;;;;;;;;;;;;;;;21.53;48.25;97791.97;4993662;28;19925;-66
2023/07/13 02:02:26;;;;;;;;;;;;;;;21.41;48.12;97787.53;5006511;28;19933;-68
2023/07/13 02:05:15;;;;;;;;;;;;;;;21.47;47.92;97790.75;4995084;28;19944;-72
2023/07/13 02:08:03;;;;;;;;;;;;;;;21.71;49.79;97803.91;4993221;28;19933;-66
2023/07/13 02:10:51;;;;;;;;;;;;;;;21.48;47.81;97792.31;4993879;28;19929;-66
2023/07/13 02:13:43;;;;;;;;;;;;;;;21.28;48.32;97789.81;4995494;28;19930;-66
2023/07/13 02:16:32;;;;;;;;;;;;;;;21.17;48.61;97783.41;4996432;28;20569;-63
2023/07/13 02:19:20;;;;;;;;;;;;;;;21.05;48.83;97790.03;4993416;28;20146;-66
2023/07/13 02:22:08;;;;;;;;;;;;;;;21.17;48.66;97784.19;5006355;28;19936;-63
2023/07/13 02:24:56;;;;;;;;;;;;;;;21.00;49.20;97792.38;4995194;28;19984;-64
2023/07/13 02:27:46;;;;;;;;;;;;;;;20.92;49.11;97795.06;5003523;28;19929;-65
2023/07/13 02:30:36;;;;;;;;;;;;;;;20.97;49.09;97790.38;5006153;28;19929;-65
2023/07/13 02:33:24;;;;;;;;;;;;;;;21.00;49.04;97790.41;4988798;28;19925;-64
2023/07/13 02:36:13;;;;;;;;;;;;;;;21.15;48.36;97797.63;4996507;28;19937;-63
2023/07/13 02:39:03;;;;;;;;;;;;;;;21.44;47.63;97800.59;4993597;28;19930;-62
2023/07/13 02:41:51;;;;;;;;;;;;;;;21.15;48.01;97803.16;5008793;28;19975;-65
2023/07/13 02:44:39;;;;;;;;;;;;;;;20.95;48.67;97792.72;4993471;28;19929;-64
2023/07/13 02:47:28;;;;;;;;;;;;;;;20.93;48.48;97796.66;4988696;28;20398;-65
2023/07/13 02:50:17;;;;;;;;;;;;;;;21.03;48.41;97791.59;4993138;28;20441;-68
2023/07/13 02:53:06;;;;;;;;;;;;;;;20.78;48.74;97794.16;4992710;28;20016;-63
2023/07/13 02:55:54;;;;;;;;;;;;;;;20.87;48.27;97800.94;4988671;28;21870;-67
2023/07/13 02:58:42;;;;;;;;;;;;;;;20.83;48.28;97805.66;5005546;28;20407;-68
2023/07/13 03:01:34;;;;;;;;;;;;;;;20.79;48.30;97812.31;4988455;28;20048;-63
2023/07/13 03:04:24;;;;;;;;;;;;;;;20.63;48.93;97816.13;4993517;28;19929;-64
2023/07/13 03:07:13;;;;;;;;;;;;;;;20.63;48.88;97813.34;5001345;28;19929;-68
2023/07/13 03:10:03;;;;;;;;;;;;;;;20.56;48.82;97818.81;4990183;28;19956;-68
2023/07/13 03:13:01;;;;;;;;;;;;;;;20.50;49.02;97819.53;4992283;28;19930;-65
2023/07/13 03:15:50;;;;;;;;;;;;;;;20.47;49.13;97825.81;5004631;28;20604;-64
2023/07/13 03:18:38;;;;;;;;;;;;;;;20.40;49.13;97827.31;5004990;28;19981;-64
2023/07/13 03:21:30;;;;;;;;;;;;;;;20.33;49.22;97829.16;4998974;28;19945;-64
2023/07/13 03:24:19;;;;;;;;;;;;;;;20.52;48.83;97840.06;5010793;28;19929;-67
2023/07/13 03:27:07;;;;;;;;;;;;;;;20.27;48.90;97850.00;4996501;28;19937;-64
2023/07/13 03:29:59;;;;;;;;;;;;;;;20.23;49.01;97852.69;4994709;28;19934;-64
2023/07/13 03:32:47;;;;;;;;;;;;;;;20.14;49.13;97849.47;4997257;28;19930;-66
2023/07/13 03:35:35;;;;;;;;;;;;;;;20.15;49.27;97853.81;5006099;28;20477;-66
2023/07/13 03:38:26;;;;;;;;;;;;;;;20.19;49.11;97857.41;4996369;28;20610;-65
2023/07/13 03:41:14;;;;;;;;;;;;;;;20.22;49.09;97866.88;4990497;28;20514;-65
2023/07/13 03:44:03;;;;;;;;;;;;;;;20.22;49.10;97873.19;4994596;28;19930;-69
2023/07/13 03:46:51;;;;;;;;;;;;;;;20.20;48.45;97866.47;4996725;28;20012;-62
2023/07/13 03:49:40;;;;;;;;;;;;;;;20.19;48.88;97867.63;4991409;28;19934;-64
2023/07/13 03:52:28;;;;;;;;;;;;;;;20.21;48.47;97874.38;4997662;28;20020;-61
2023/07/13 03:55:20;;;;;;;;;;;;;;;20.30;48.89;97874.88;5008954;28;19939;-62
2023/07/13 03:58:26;;;;;;;;;;;;;;;20.35;47.93;97871.78;4991775;28;19981;-64
2023/07/13 04:01:18;;;;;;;;;;;;;;;20.06;48.08;97878.91;4996235;28;20429;-64
2023/07/13 04:04:06;;;;;;;;;;;;;;;20.04;48.48;97880.47;5003862;28;19933;-70
2023/07/13 04:06:54;;;;;;;;;;;;;;;20.15;48.09;97890.44;5010143;28;19936;-63
2023/07/13 04:09:43;;;;;;;;;;;;;;;20.03;48.07;97903.69;4999205;28;19936;-67
2023/07/13 04:12:32;;;;;;;;;;;;;;;20.01;48.23;97904.03;4997966;28;19940;-64
2023/07/13 04:15:24;;;;;;;;;;;;;;;19.98;48.22;97906.78;5006255;28;19961;-62
2023/07/13 04:18:12;;;;;;;;;;;;;;;20.14;47.81;97901.88;4997530;28;19933;-69
2023/07/13 04:21:00;;;;;;;;;;;;;;;20.25;47.30;97905.56;5015667;28;19933;-69
2023/07/13 04:23:49;;;;;;;;;;;;;;;20.25;47.31;97900.03;4997975;28;19926;-69
2023/07/13 04:26:38;;;;;;;;;;;;;;;20.13;47.46;97897.50;4999029;28;19930;-68
2023/07/13 04:29:28;;;;;;;;;;;;;;;19.86;47.80;97894.78;4995505;28;20494;-66
2023/07/13 04:32:16;;;;;;;;;;;;;;;20.03;47.65;97896.22;4998213;28;19929;-65
2023/07/13 04:35:04;;;;;;;;;;;;;;;19.80;47.94;97901.00;5001579;28;19932;-66
2023/07/13 04:37:53;;;;;;;;;;;;;;;19.91;47.79;97901.16;4998092;28;20330;-63
2023/07/13 04:40:41;;;;;;;;;;;;;;;19.69;48.41;97911.06;5019269;28;20015;-64
2023/07/13 04:43:29;;;;;;;;;;;;;;;19.76;48.29;97911.16;5003825;28;19933;-64
2023/07/13 04:46:19;;;;;;;;;;;;;;;19.81;48.39;97910.84;5005068;28;19960;-69
2023/07/13 04:49:07;;;;;;;;;;;;;;;19.63;48.33;97918.88;5004959;28;20013;-66
2023/07/13 04:51:55;;;;;;;;;;;;;;;19.79;48.15;97914.00;5003756;28;19980;-69
2023/07/13 04:54:44;;;;;;;;;;;;;;;19.81;48.24;97914.41;5006201;28;19940;-65
2023/07/13 04:57:32;;;;;;;;;;;;;;;19.84;47.95;97913.66;5004849;28;19936;-67
2023/07/13 05:00:20;;;;;;;;;;;;;;;19.86;48.20;97916.84;4996532;28;20371;-70
2023/07/13 05:03:10;;;;;;;;;;;;;;;19.78;48.05;97920.66;5015240;28;19973;-62
2023/07/13 05:05:59;;;;;;;;;;;;;;;19.60;48.70;97925.94;5017223;28;19929;-63
2023/07/13 05:08:47;;;;;;;;;;;;;;;19.87;48.42;97934.19;5001557;28;19932;-64
2023/07/13 05:11:35;;;;;;;;;;;;;;;19.58;48.50;97933.72;4991142;28;19940;-64
2023/07/13 05:14:23;;;;;;;;;;;;;;;19.38;48.85;97941.28;4994329;28;19937;-68
2023/07/13 05:17:12;;;;;;;;;;;;;;;19.32;49.18;97937.25;5001830;28;19940;-63
2023/07/13 05:20:01;;;;;;;;;;;;;;;19.37;48.90;97938.88;5000863;28;19933;-64
2023/07/13 05:22:50;;;;;;;;;;;;;;;19.36;49.13;97943.59;5006235;28;19956;-67
2023/07/13 05:25:38;;;;;;;;;;;;;;;19.23;48.89;97952.41;5007528;28;19935;-64
2023/07/13 05:28:27;;;;;;;;;;;;;;;19.24;49.06;97956.78;5003877;28;20305;-63
2023/07/13 05:31:15;;;;;;;;;;;;;;;19.23;49.03;97960.69;5003044;28;19929;-60
2023/07/13 05:34:03;;;;;;;;;;;;;;;19.52;48.76;97948.97;4997278;28;20050;-67
2023/07/13 05:36:53;;;;;;;;;;;;;;;19.38;48.88;97951.50;4996195;28;19929;-65
2023/07/13 05:39:41;;;;;;;;;;;;;;;19.38;48.73;97952.28;4993204;28;19937;-69
2023/07/13 05:42:31;;;;;;;;;;;;;;;19.30;49.08;97956.09;4994132;28;19957;-63
2023/07/13 05:45:19;;;;;;;;;;;;;;;19.63;48.40;97954.69;5008128;28;19933;-65
2023/07/13 05:48:07;;;;;;;;;;;;;;;19.59;48.47;97953.84;5008313;28;19929;-61
2023/07/13 05:50:55;;;;;;;;;;;;;;;19.54;48.42;97960.41;5002898;28;19940;-62
2023/07/13 05:53:47;;;;;;;;;;;;;;;19.58;48.45;97966.78;4999235;28;20450;-63
2023/07/13 05:56:35;;;;;;;;;;;;;;;19.58;48.33;97966.00;5006446;28;19933;-62
2023/07/13 05:59:23;;;;;;;;;;;;;;;19.62;48.06;97970.44;5004206;28;20008;-63
2023/07/13 06:02:12;;;;;;;;;;;;;;;19.83;48.48;97967.22;5003123;28;19929;-66
2023/07/13 06:05:00;;;;;;;;;;;;;;;19.93;47.96;97959.47;4996771;28;19929;-64
2023/07/13 06:07:48;;;;;;;;;;;;;;;20.03;48.14;97969.88;5005866;28;19936;-65
2023/07/13 06:10:38;;;;;;;;;;;;;;;19.94;47.47;97966.59;5005571;28;19926;-63
2023/07/13 06:13:28;;;;;;;;;;;;;;;19.83;47.47;97972.72;4995396;28;19983;-64
2023/07/13 06:16:16;;;;;;;;;;;;;;;20.00;47.22;97973.38;5014748;28;19932;-62
2023/07/13 06:19:05;;;;;;;;;;;;;;;19.88;47.29;97977.13;5016616;28;19936;-68
2023/07/13 06:21:53;;;;;;;;;;;;;;;19.65;47.55;97981.88;4989822;28;19933;-62
2023/07/13 06:24:44;;;;;;;;;;;;;;;19.84;47.44;97979.84;4999177;28;19952;-63
2023/07/13 06:27:34;;;;;;;;;;;;;;;19.92;47.74;97979.94;5004870;28;20582;-63
2023/07/13 06:30:22;;;;;;;;;;;;;;;19.84;47.89;97977.06;4999937;28;19940;-65
2023/07/13 06:33:12;;;;;;;;;;;;;;;19.85;47.23;97975.91;5002707;28;20032;-62
2023/07/13 06:36:01;;;;;;;;;;;;;;;20.04;47.39;97976.97;5005681;28;19933;-62
2023/07/13 06:38:50;;;;;;;;;;;;;;;20.22;47.29;97989.03;5004004;28;19952;-64
2023/07/13 06:41:38;;;;;;;;;;;;;;;20.21;46.47;97997.69;5005572;28;19932;-64
2023/07/13 06:44:32;;;;;;;;;;;;;;;20.32;46.38;97991.16;5004931;28;19925;-64
2023/07/13 06:47:20;;;;;;;;;;;;;;;20.05;46.72;97997.88;4994344;28;20345;-61
2023/07/13 06:50:09;;;;;;;;;;;;;;;20.13;46.82;97997.63;5002796;28;19930;-61
2023/07/13 06:52:59;;;;;;;;;;;;;;;20.33;46.10;98000.22;5003699;28;19929;-61
2023/07/13 06:55:47;;;;;;;;;;;;;;;20.16;46.63;98018.13;5009248;28;19925;-62
2023/07/13 06:58:36;;;;;;;;;;;;;;;20.12;46.68;98011.75;5009149;28;20319;-65
2023/07/13 07:01:29;;;;;;;;;;;;;;;20.24;46.62;98008.78;5003541;28;19988;-62
2023/07/13 07:04:17;;;;;;;;;;;;;;;20.26;46.75;98006.44;5008187;28;19931;-63
2023/07/13 07:07:05;;;;;;;;;;;;;;;20.32;46.56;98007.72;5004183;28;20329;-62
2023/07/13 07:09:53;;;;;;;;;;;;;;;20.45;46.41;98021.28;5009579;28;19932;-60
2023/07/13 07:12:42;;;;;;;;;;;;;;;20.46;45.81;98022.88;5007813;28;20299;-67
2023/07/13 07:15:30;;;;;;;;;;;;;;;20.55;45.78;98020.66;5009368;28;20067;-62
2023/07/13 07:18:19;;;;;;;;;;;;;;;20.56;45.72;98019.47;5005265;28;19932;-61
2023/07/13 07:21:08;;;;;;;;;;;;;;;20.53;45.45;98020.25;5007863;28;19940;-65
2023/07/13 07:23:56;;;;;;;;;;;;;;;20.65;45.95;98022.75;4999082;28;20408;-66
2023/07/13 07:26:46;;;;;;;;;;;;;;;20.63;45.87;98022.34;4998326;28;19930;-65
2023/07/13 07:29:37;;;;;;;;;;;;;;;20.69;45.50;98017.28;5005177;28;19933;-61
2023/07/13 07:32:33;;;;;;;;;;;;;;;20.87;44.71;98037.63;5008555;28;19926;-61
2023/07/13 07:35:26;;;;;;;;;;;;;;;20.87;44.81;98032.09;5000312;28;20024;-62
2023/07/13 07:38:14;;;;;;;;;;;;;;;20.90;45.17;98040.44;4995112;28;19980;-65
2023/07/13 07:41:03;;;;;;;;;;;;;;;21.05;45.84;98035.88;4999918;28;20395;-71
2023/07/13 07:43:54;;;;;;;;;;;;;;;20.91;44.62;98041.22;5002942;28;19933;-63
2023/07/13 07:46:43;;;;;;;;;;;;;;;20.93;44.29;98038.88;5002855;28;19930;-65
2023/07/13 07:49:31;;;;;;;;;;;;;;;20.97;44.27;98038.91;5011714;28;19949;-61
2023/07/13 07:52:21;;;;;;;;;;;;;;;20.93;44.31;98055.44;4995496;28;19930;-65
2023/07/13 07:55:09;;;;;;;;;;;;;;;20.92;43.41;98048.34;5001075;28;19932;-64
2023/07/13 07:58:01;;;;;;;;;;;;;;;21.00;43.67;98050.03;4999086;28;20023;-62
2023/07/13 08:00:52;;;;;;;;;;;;;;;21.01;44.50;98050.81;5005525;28;19984;-60
2023/07/13 08:03:43;;;;;;;;;;;;;;;20.90;43.38;98056.22;5003624;28;19933;-66
2023/07/13 08:06:34;;;;;;;;;;;;;;;21.09;43.28;98058.81;5000650;28;19925;-62
2023/07/13 08:09:27;;;;;;;;;;;;;;;21.15;42.66;98056.50;5008121;28;20016;-69
2023/07/13 08:12:16;;;;;;;;;;;;;;;21.51;43.46;98051.38;5001922;28;19926;-64
2023/07/13 08:15:24;;;;;;;;;;;;;;;21.76;41.60;98052.41;5005722;28;19968;-62
2023/07/13 08:18:13;;;;;;;;;;;;;;;21.65;41.54;98052.31;5002965;28;20397;-63
2023/07/13 08:21:06;;;;;;;;;;;;;;;21.76;42.82;98057.94;5003566;28;19936;-67
2023/07/13 08:23:54;;;;;;;;;;;;;;;21.71;40.39;98063.81;4992974;28;19940;-64
2023/07/13 08:26:44;;;;;;;;;;;;;;;21.81;40.13;98063.09;5006386;28;19927;-61
2023/07/13 08:29:33;;;;;;;;;;;;;;;22.00;38.45;98058.50;5003897;28;19930;-62
2023/07/13 08:32:22;;;;;;;;;;;;;;;21.86;40.01;98057.22;4997980;28;19926;-62
2023/07/13 08:35:15;;;;;;;;;;;;;;;21.76;38.50;98057.94;5005043;28;19925;-63
2023/07/13 08:38:03;;;;;;;;;;;;;;;21.83;39.22;98057.97;5003413;28;19929;-61
2023/07/13 08:40:53;;;;;;;;;;;;;;;22.16;38.35;98054.34;5005223;28;19929;-65
2023/07/13 08:43:44;;;;;;;;;;;;;;;22.19;39.00;98052.75;4995100;28;19929;-64
2023/07/13 08:46:33;;;;;;;;;;;;;;;22.19;37.28;98058.28;5007187;28;19932;-61
2023/07/13 08:49:23;;;;;;;;;;;;;;;22.06;35.51;98071.63;5007659;28;19929;-65
2023/07/13 08:52:12;;;;;;;;;;;;;;;22.09;33.56;98070.03;5006298;28;19951;-65
2023/07/13 08:55:02;;;;;;;;;;;;;;;22.02;34.50;98089.38;4989829;28;20358;-64
2023/07/13 08:57:52;;;;;;;;;;;;;;;21.98;35.30;98086.56;5002840;28;19929;-63
2023/07/13 09:00:45;;;;;;;;;;;;;;;22.11;35.17;98076.03;5003671;28;19933;-66
2023/07/13 09:03:36;;;;;;;;;;;;;;;22.11;35.65;98082.38;5006646;28;19929;-62
2023/07/13 09:06:28;;;;;;;;;;;;;;;22.13;34.68;98085.53;4993941;28;19932;-61
2023/07/13 09:09:20;;;;;;;;;;;;;;;22.11;35.44;98082.38;5006477;28;19956;-62
2023/07/13 09:12:11;;;;;;;;;;;;;;;22.13;36.24;98084.75;5017656;28;19936;-65
2023/07/13 09:15:00;;;;;;;;;;;;;;;22.12;35.05;98083.94;5007041;28;20565;-61
2023/07/13 09:17:51;;;;;;;;;;;;;;;21.89;34.99;98084.13;4993258;28;19930;-64
2023/07/13 09:20:40;;;;;;;;;;;;;;;22.05;36.41;98081.09;5023459;28;19929;-64
2023/07/13 09:23:30;;;;;;;;;;;;;;;22.32;36.25;98073.44;4996026;28;20040;-63
2023/07/13 09:26:20;;;;;;;;;;;;;;;22.46;34.97;98073.50;5002438;28;19933;-62
2023/07/13 09:29:10;;;;;;;;;;;;;;;22.27;34.77;98082.09;4992697;28;19933;-65
2023/07/13 09:31:59;;;;;;;;;;;;;;;22.34;34.91;98101.50;5001732;28;19956;-64
2023/07/13 09:34:54;;;;;;;;;;;;;;;22.18;35.08;98095.47;5001403;28;19930;-65
2023/07/13 09:37:42;;;;;;;;;;;;;;;22.40;36.52;98080.59;4995711;28;20100;-65
2023/07/13 09:40:34;;;;;;;;;;;;;;;22.46;34.99;98081.81;4985934;28;19937;-62
2023/07/13 09:43:22;;;;;;;;;;;;;;;22.50;35.53;98084.59;4987213;28;20295;-65
2023/07/13 09:46:20;;;;;;;;;;;;;;;22.49;32.74;98075.50;5000711;28;19926;-62
2023/07/13 09:49:09;;;;;;;;;;;;;;;22.49;32.28;98078.28;4998469;28;19932;-65
2023/07/13 09:52:00;;;;;;;;;;;;;;;22.58;32.58;98077.91;5006190;28;19936;-66
2023/07/13 09:54:49;;;;;;;;;;;;;;;22.60;32.45;98083.88;5006676;28;19929;-62
2023/07/13 09:57:38;;;;;;;;;;;;;;;22.59;31.27;98074.00;5015754;28;20402;-65
2023/07/13 10:00:37;;;;;;;;;;;;;;;22.57;31.50;98083.84;5004383;28;19926;-61
2023/07/13 10:03:27;;;;;;;;;;;;;;;22.49;31.49;98083.03;4999262;28;19925;-65
2023/07/13 10:06:16;;;;;;;;;;;;;;;22.52;31.67;98078.69;5013596;28;19937;-64
2023/07/13 10:09:07;;;;;;;;;;;;;;;22.82;31.80;98078.44;5001850;28;20595;-62
2023/07/13 10:11:55;;;;;;;;;;;;;;;22.80;31.50;98078.84;4995705;28;20383;-61
2023/07/13 10:14:43;;;;;;;;;;;;;;;22.76;31.46;98089.09;5001768;28;19929;-65
2023/07/13 10:17:34;;;;;;;;;;;;;;;22.72;31.37;98091.06;5004420;28;19929;-64
2023/07/13 10:20:22;;;;;;;;;;;;;;;22.78;31.42;98083.97;5002703;28;20249;-63
2023/07/13 10:23:12;;;;;;;;;;;;;;;22.70;31.59;98085.91;5011852;28;19930;-62
2023/07/13 10:26:02;;;;;;;;;;;;;;;22.82;31.72;98095.06;5005960;28;19948;-64
2023/07/13 10:28:55;;;;;;;;;;;;;;;22.88;31.67;98082.47;5007664;28;19937;-65
2023/07/13 10:31:45;;;;;;;;;;;;;;;22.72;31.83;98096.59;5002868;28;19939;-64
2023/07/13 10:34:36;;;;;;;;;;;;;;;22.56;32.40;98104.41;5010939;28;19933;-64
2023/07/13 10:37:26;;;;;;;;;;;;;;;22.47;32.29;98088.13;5010605;28;19929;-62
2023/07/13 10:40:15;;;;;;;;;;;;;;;22.57;32.73;98092.16;5004756;28;19937;-64
2023/07/13 10:43:05;;;;;;;;;;;;;;;22.63;32.17;98085.06;5004250;28;20503;-60
2023/07/13 10:45:54;;;;;;;;;;;;;;;22.60;32.43;98094.16;5009858;28;19925;-61
2023/07/13 10:48:43;;;;;;;;;;;;;;;22.80;32.33;98092.69;5010356;28;19956;-62
2023/07/13 10:51:34;;;;;;;;;;;;;;;22.84;31.94;98093.50;5008568;28;19929;-65
2023/07/13 10:54:25;;;;;;;;;;;;;;;22.96;32.41;98090.44;5021452;28;20259;-63
2023/07/13 10:57:16;;;;;;;;;;;;;;;22.96;31.98;98097.94;5006501;28;19926;-63
2023/07/13 11:00:17;;;;;;;;;;;;;;;22.96;31.40;98095.97;5001655;28;19929;-62
2023/07/13 11:03:05;;;;;;;;;;;;;;;23.09;32.02;98084.53;4998285;28;19975;-61
2023/07/13 11:06:05;;;;;;;;;;;;;;;23.16;30.84;98090.09;5005282;28;20437;-61
2023/07/13 11:08:54;;;;;;;;;;;;;;;23.29;31.81;98090.56;5008756;28;19977;-63
2023/07/13 11:11:42;;;;;;;;;;;;;;;23.14;32.49;98093.25;5008662;28;20429;-63
2023/07/13 11:14:32;;;;;;;;;;;;;;;22.84;32.32;98098.25;5008369;28;20331;-64
2023/07/13 11:17:38;;;;;;;;;;;;;;;22.84;32.22;98084.38;5009436;28;19932;-63
2023/07/13 11:20:35;;;;;;;;;;;;;;;22.83;32.48;98088.34;5006518;28;19977;-64
2023/07/13 11:23:31;;;;;;;;;;;;;;;22.90;32.66;98080.09;5002527;28;19960;-61
2023/07/13 11:26:38;;;;;;;;;;;;;;;23.02;32.60;98081.75;5008369;28;19932;-61
2023/07/13 11:29:33;;;;;;;;;;;;;;;23.10;32.51;98072.25;5007353;28;19948;-65
2023/07/13 11:32:24;;;;;;;;;;;;;;;23.17;31.91;98073.09;4998767;28;19930;-62
2023/07/13 11:35:15;;;;;;;;;;;;;;;23.16;31.35;98067.91;5006733;28;19926;-63
2023/07/13 11:38:03;;;;;;;;;;;;;;;23.38;32.68;98075.13;5001637;28;19933;-64
2023/07/13 11:40:52;;;;;;;;;;;;;;;23.50;31.40;98069.22;5009341;28;19969;-63
2023/07/13 11:43:43;;;;;;;;;;;;;;;23.51;31.71;98065.25;5008017;28;20383;-63
2023/07/13 11:46:32;;;;;;;;;;;;;;;23.46;31.86;98062.06;5007939;28;20501;-65
2023/07/13 11:49:21;;;;;;;;;;;;;;;23.42;32.28;98062.06;5004845;28;20295;-62
2023/07/13 11:52:13;;;;;;;;;;;;;;;23.44;32.31;98064.47;4997246;28;19930;-61
2023/07/13 11:55:01;;;;;;;;;;;;;;;23.49;32.22;98075.16;4990943;28;19925;-61
2023/07/13 11:57:51;;;;;;;;;;;;;;;23.49;31.99;98066.84;4997972;28;19933;-63
2023/07/13 12:00:41;;;;;;;;;;;;;;;23.35;32.70;98073.13;5007660;28;19929;-62
2023/07/13 12:03:29;;;;;;;;;;;;;;;23.29;32.07;98069.16;5001095;28;20433;-61
2023/07/13 12:06:23;;;;;;;;;;;;;;;23.37;32.12;98076.31;4994970;28;20584;-69
2023/07/13 12:09:13;;;;;;;;;;;;;;;23.35;32.22;98075.13;5007139;28;19934;-61
2023/07/13 12:12:01;;;;;;;;;;;;;;;23.30;32.61;98065.22;5007468;28;19947;-63
2023/07/13 12:14:51;;;;;;;;;;;;;;;23.35;32.78;98067.59;4999352;28;19926;-62
2023/07/13 12:17:40;;;;;;;;;;;;;;;23.41;33.66;98082.66;5006586;28;20051;-64
2023/07/13 12:20:31;;;;;;;;;;;;;;;23.37;32.75;98079.06;5007774;28;19952;-63
2023/07/13 12:23:22;;;;;;;;;;;;;;;23.44;33.49;98081.88;5001948;28;19932;-65
2023/07/13 12:26:11;;;;;;;;;;;;;;;23.62;33.91;98076.38;5005605;28;20430;-65
2023/07/13 12:29:01;;;;;;;;;;;;;;;23.70;32.54;98068.88;5000336;28;19931;-64
2023/07/13 12:31:52;;;;;;;;;;;;;;;23.71;31.93;98064.94;5005295;28;19953;-63
2023/07/13 12:34:51;;;;;;;;;;;;;;;23.79;32.02;98063.72;5006484;28;19933;-61
2023/07/13 12:37:42;;;;;;;;;;;;;;;23.83;32.42;98070.09;5001500;28;20331;-63
2023/07/13 12:40:33;;;;;;;;;;;;;;;23.85;32.53;98064.13;5005816;28;20469;-63
2023/07/13 12:43:25;;;;;;;;;;;;;;;23.76;32.14;98065.31;5005727;28;20027;-62
2023/07/13 12:46:18;;;;;;;;;;;;;;;23.81;33.01;98055.00;5006215;28;19933;-62
2023/07/13 12:49:07;;;;;;;;;;;;;;;23.77;32.53;98078.00;4999356;28;20455;-62
2023/07/13 12:52:11;;;;;;;;;;;;;;;23.85;32.60;98070.47;5005272;28;19925;-59
2023/07/13 12:55:00;;;;;;;;;;;;;;;23.64;32.97;98057.38;5006631;28;19934;-59
2023/07/13 12:57:54;;;;;;;;;;;;;;;23.59;32.94;98062.47;5005127;28;19926;-60
2023/07/13 13:00:48;;;;;;;;;;;;;;;23.59;32.88;98060.50;5006318;28;19933;-62
2023/07/13 13:03:38;;;;;;;;;;;;;;;23.62;33.98;98065.28;5000884;28;19925;-62
2023/07/13 13:06:27;;;;;;;;;;;;;;;23.59;32.46;98057.72;5005893;28;20015;-62
2023/07/13 13:09:16;;;;;;;;;;;;;;;23.79;32.69;98050.66;5005229;28;20020;-61
2023/07/13 13:12:05;;;;;;;;;;;;;;;24.08;32.64;98055.44;5007008;28;19925;-64
2023/07/13 13:14:53;;;;;;;;;;;;;;;23.98;32.51;98055.03;4997905;28;19932;-61
2023/07/13 13:17:43;;;;;;;;;;;;;;;23.96;32.62;98057.38;5004451;28;19925;-62
2023/07/13 13:20:31;;;;;;;;;;;;;;;23.88;33.02;98057.81;5005731;28;20024;-61
2023/07/13 13:23:22;;;;;;;;;;;;;;;23.86;32.81;98055.41;5006005;28;19929;-61
2023/07/13 13:26:11;;;;;;;;;;;;;;;23.63;33.86;98050.25;5005922;28;20681;-62
2023/07/13 13:29:00;;;;;;;;;;;;;;;23.78;33.13;98048.28;5000469;28;19981;-64
2023/07/13 13:31:50;;;;;;;;;;;;;;;23.91;33.49;98043.13;5003285;28;20287;-62
2023/07/13 13:34:40;;;;;;;;;;;;;;;24.28;32.29;98048.25;5005661;28;19930;-63
2023/07/13 13:37:28;;;;;;;;;;;;;;;24.16;32.08;98041.13;5006126;28;20411;-66
2023/07/13 13:40:19;;;;;;;;;;;;;;;24.12;31.50;98054.22;4988555;28;19925;-65
2023/07/13 13:43:12;;;;;;;;;;;;;;;24.04;32.03;98042.34;5003389;28;20028;-69
2023/07/13 13:46:00;;;;;;;;;;;;;;;23.98;32.38;98046.69;4991220;28;19933;-65
2023/07/13 13:48:49;;;;;;;;;;;;;;;24.08;32.21;98049.88;4992184;28;19926;-63
2023/07/13 13:51:38;;;;;;;;;;;;;;;24.16;32.92;98049.44;4997790;28;19929;-62
2023/07/13 13:54:26;;;;;;;;;;;;;;;24.19;31.90;98036.78;5000390;28;19937;-60
2023/07/13 13:57:15;;;;;;;;;;;;;;;24.24;31.56;98030.81;4989428;28;19933;-62
2023/07/13 14:00:03;;;;;;;;;;;;;;;24.34;32.75;98034.75;4993870;28;19996;-63
2023/07/13 14:02:56;;;;;;;;;;;;;;;24.20;33.09;98038.34;4997036;28;19940;-63
2023/07/13 14:05:46;;;;;;;;;;;;;;;24.31;31.67;98053.81;5005560;28;20295;-64
2023/07/13 14:08:35;;;;;;;;;;;;;;;24.29;31.61;98047.06;5000704;28;20377;-64
2023/07/13 14:11:24;;;;;;;;;;;;;;;24.30;31.52;98059.75;5003682;28;19933;-64
2023/07/13 14:14:15;;;;;;;;;;;;;;;24.26;31.63;98040.31;5004597;28;20543;-64
2023/07/13 14:21:18;;;;;;;;;;;;;;;24.38;31.29;98038.34;4995328;28;20291;-65
2023/07/13 14:24:08;;;;;;;;;;;;;;;24.24;31.84;98041.94;4997001;28;20020;-62
2023/07/13 14:26:56;;;;;;;;;;;;;;;24.20;31.78;98050.25;4997330;28;19925;-64
2023/07/13 14:29:44;;;;;;;;;;;;;;;24.15;32.58;98055.41;4997208;28;19933;-61
2023/07/13 14:32:33;;;;;;;;;;;;;;;24.28;33.46;98060.13;4995758;28;20831;-64
2023/07/13 14:35:23;;;;;;;;;;;;;;;24.48;31.45;98054.19;4995367;28;19929;-60
2023/07/13 14:38:12;;;;;;;;;;;;;;;24.46;31.49;98046.28;4996015;28;20051;-60
2023/07/13 14:41:04;;;;;;;;;;;;;;;24.43;31.07;98037.94;4996571;28;19937;-61
2023/07/13 14:43:52;;;;;;;;;;;;;;;24.39;31.70;98035.16;5006218;28;19926;-65
2023/07/13 14:46:41;;;;;;;;;;;;;;;24.46;31.70;98037.94;4996994;28;19940;-60
2023/07/13 14:49:31;;;;;;;;;;;;;;;24.68;30.62;98032.31;4995364;28;20401;-63